sensor_id;sensor_type;location;lat;lon;timestamp;P1;durP1;ratioP1;P2;durP2;ratioP2
36597;SDS011;22607;49.550;11.940;2023-07-29T00:00:44;6.32;;;1.60;;
36597;SDS011;22607;49.550;11.940;2023-07-29T00:03:11;4.75;;;1.50;;
36597;SDS011;22607;49.550;11.940;2023-07-29T00:05:38;5.60;;;1.65;;
36597;SDS011;22607;49.550;11.940;2023-07-29T00:08:05;14.45;;;2.30;;
36597;SDS011;22607;49.550;11.940;2023-07-29T00:10:33;4.63;;;1.38;;
36597;SDS011;22607;49.550;11.940;2023-07-29T00:13:02;4.90;;;1.40;;
36597;SDS011;22607;49.550;11.940;2023-07-29T00:15:30;4.20;;;1.40;;
36597;SDS011;22607;49.550;11.940;2023-07-29T00:17:56;5.03;;;1.30;;
36597;SDS011;22607;49.550;11.940;2023-07-29T00:20:23;5.43;;;1.60;;
36597;SDS011;22607;49.550;11.940;2023-07-29T00:22:50;6.13;;;1.60;;
36597;SDS011;22607;49.550;11.940;2023-07-29T00:25:19;4.88;;;1.48;;
36597;SDS011;22607;49.550;11.940;2023-07-29T00:27:46;5.45;;;1.65;;
36597;SDS011;22607;49.550;11.940;2023-07-29T00:30:12;5.68;;;1.50;;
36597;SDS011;22607;49.550;11.940;2023-07-29T00:32:39;5.90;;;1.60;;
36597;SDS011;22607;49.550;11.940;2023-07-29T00:35:06;4.93;;;1.58;;
36597;SDS011;22607;49.550;11.940;2023-07-29T00:37:33;4.38;;;1.40;;
36597;SDS011;22607;49.550;11.940;2023-07-29T00:39:59;5.50;;;1.50;;
36597;SDS011;22607;49.550;11.940;2023-07-29T00:42:26;4.82;;;1.60;;
36597;SDS011;22607;49.550;11.940;2023-07-29T00:44:52;5.35;;;1.50;;
36597;SDS011;22607;49.550;11.940;2023-07-29T00:47:19;4.82;;;1.50;;
36597;SDS011;22607;49.550;11.940;2023-07-29T00:49:46;4.43;;;1.38;;
36597;SDS011;22607;49.550;11.940;2023-07-29T00:52:13;6.07;;;1.60;;
36597;SDS011;22607;49.550;11.940;2023-07-29T00:54:40;5.63;;;1.70;;
36597;SDS011;22607;49.550;11.940;2023-07-29T00:57:08;5.55;;;1.70;;
36597;SDS011;22607;49.550;11.940;2023-07-29T00:59:36;5.97;;;1.58;;
36597;SDS011;22607;49.550;11.940;2023-07-29T01:02:02;4.07;;;1.50;;
36597;SDS011;22607;49.550;11.940;2023-07-29T01:04:30;5.20;;;1.70;;
36597;SDS011;22607;49.550;11.940;2023-07-29T01:07:03;5.28;;;1.40;;
36597;SDS011;22607;49.550;11.940;2023-07-29T01:12:22;6.55;;;1.70;;
36597;SDS011;22607;49.550;11.940;2023-07-29T01:15:01;5.18;;;1.50;;
36597;SDS011;22607;49.550;11.940;2023-07-29T01:17:32;7.22;;;1.60;;
36597;SDS011;22607;49.550;11.940;2023-07-29T01:20:01;4.75;;;1.42;;
36597;SDS011;22607;49.550;11.940;2023-07-29T01:22:32;5.60;;;1.70;;
36597;SDS011;22607;49.550;11.940;2023-07-29T01:25:00;4.07;;;1.33;;
36597;SDS011;22607;49.550;11.940;2023-07-29T01:27:27;4.43;;;1.40;;
36597;SDS011;22607;49.550;11.940;2023-07-29T01:29:54;3.80;;;1.38;;
36597;SDS011;22607;49.550;11.940;2023-07-29T01:32:43;5.78;;;1.75;;
36597;SDS011;22607;49.550;11.940;2023-07-29T01:37:48;5.90;;;1.80;;
36597;SDS011;22607;49.550;11.940;2023-07-29T01:40:32;5.90;;;1.73;;
36597;SDS011;22607;49.550;11.940;2023-07-29T01:42:59;5.03;;;1.75;;
36597;SDS011;22607;49.550;11.940;2023-07-29T01:45:26;5.05;;;1.75;;
36597;SDS011;22607;49.550;11.940;2023-07-29T01:47:53;5.63;;;1.70;;
36597;SDS011;22607;49.550;11.940;2023-07-29T01:50:19;5.00;;;1.60;;
36597;SDS011;22607;49.550;11.940;2023-07-29T01:52:46;7.15;;;2.08;;
36597;SDS011;22607;49.550;11.940;2023-07-29T01:55:12;5.70;;;2.00;;
36597;SDS011;22607;49.550;11.940;2023-07-29T01:57:39;5.65;;;1.80;;
36597;SDS011;22607;49.550;11.940;2023-07-29T02:00:06;5.15;;;1.75;;
36597;SDS011;22607;49.550;11.940;2023-07-29T02:02:34;7.13;;;2.38;;
36597;SDS011;22607;49.550;11.940;2023-07-29T02:05:00;5.28;;;1.80;;
36597;SDS011;22607;49.550;11.940;2023-07-29T02:07:27;5.53;;;1.80;;
36597;SDS011;22607;49.550;11.940;2023-07-29T02:09:55;6.15;;;2.00;;
36597;SDS011;22607;49.550;11.940;2023-07-29T02:12:22;6.82;;;2.10;;
36597;SDS011;22607;49.550;11.940;2023-07-29T02:14:48;6.75;;;1.90;;
36597;SDS011;22607;49.550;11.940;2023-07-29T02:17:15;6.10;;;1.80;;
36597;SDS011;22607;49.550;11.940;2023-07-29T02:19:41;5.80;;;1.80;;
36597;SDS011;22607;49.550;11.940;2023-07-29T02:22:08;5.57;;;1.80;;
36597;SDS011;22607;49.550;11.940;2023-07-29T02:24:36;5.78;;;2.10;;
36597;SDS011;22607;49.550;11.940;2023-07-29T02:27:02;5.85;;;1.80;;
36597;SDS011;22607;49.550;11.940;2023-07-29T02:29:29;5.30;;;1.73;;
36597;SDS011;22607;49.550;11.940;2023-07-29T02:31:56;6.50;;;1.75;;
36597;SDS011;22607;49.550;11.940;2023-07-29T02:34:23;5.20;;;1.80;;
36597;SDS011;22607;49.550;11.940;2023-07-29T02:36:49;5.05;;;1.60;;
36597;SDS011;22607;49.550;11.940;2023-07-29T02:39:16;5.57;;;1.90;;
36597;SDS011;22607;49.550;11.940;2023-07-29T02:41:44;6.00;;;1.90;;
36597;SDS011;22607;49.550;11.940;2023-07-29T02:44:10;4.95;;;1.63;;
36597;SDS011;22607;49.550;11.940;2023-07-29T02:46:37;4.65;;;1.67;;
36597;SDS011;22607;49.550;11.940;2023-07-29T02:49:04;5.47;;;1.80;;
36597;SDS011;22607;49.550;11.940;2023-07-29T02:51:30;5.82;;;1.80;;
36597;SDS011;22607;49.550;11.940;2023-07-29T02:53:57;5.75;;;1.80;;
36597;SDS011;22607;49.550;11.940;2023-07-29T02:56:24;4.97;;;1.73;;
36597;SDS011;22607;49.550;11.940;2023-07-29T02:58:50;4.80;;;1.65;;
36597;SDS011;22607;49.550;11.940;2023-07-29T03:01:22;6.57;;;2.20;;
36597;SDS011;22607;49.550;11.940;2023-07-29T03:03:52;5.28;;;2.00;;
36597;SDS011;22607;49.550;11.940;2023-07-29T03:06:20;5.75;;;1.90;;
36597;SDS011;22607;49.550;11.940;2023-07-29T03:08:46;5.95;;;1.88;;
36597;SDS011;22607;49.550;11.940;2023-07-29T03:11:13;5.72;;;1.55;;
36597;SDS011;22607;49.550;11.940;2023-07-29T03:13:41;5.25;;;1.70;;
36597;SDS011;22607;49.550;11.940;2023-07-29T03:16:10;4.45;;;1.50;;
36597;SDS011;22607;49.550;11.940;2023-07-29T03:18:38;6.80;;;1.90;;
36597;SDS011;22607;49.550;11.940;2023-07-29T03:21:04;4.90;;;1.80;;
36597;SDS011;22607;49.550;11.940;2023-07-29T03:23:35;5.65;;;1.60;;
36597;SDS011;22607;49.550;11.940;2023-07-29T03:26:03;5.75;;;1.90;;
36597;SDS011;22607;49.550;11.940;2023-07-29T03:28:41;5.53;;;1.73;;
36597;SDS011;22607;49.550;11.940;2023-07-29T03:31:09;5.95;;;1.60;;
36597;SDS011;22607;49.550;11.940;2023-07-29T03:33:37;5.13;;;1.50;;
36597;SDS011;22607;49.550;11.940;2023-07-29T03:36:03;5.25;;;1.52;;
36597;SDS011;22607;49.550;11.940;2023-07-29T03:38:30;4.80;;;1.60;;
36597;SDS011;22607;49.550;11.940;2023-07-29T03:40:59;6.65;;;2.00;;
36597;SDS011;22607;49.550;11.940;2023-07-29T03:43:26;6.47;;;1.75;;
36597;SDS011;22607;49.550;11.940;2023-07-29T03:45:52;5.43;;;1.95;;
36597;SDS011;22607;49.550;11.940;2023-07-29T03:48:19;6.50;;;1.92;;
36597;SDS011;22607;49.550;11.940;2023-07-29T03:50:45;4.40;;;1.40;;
36597;SDS011;22607;49.550;11.940;2023-07-29T03:53:12;5.10;;;1.60;;
36597;SDS011;22607;49.550;11.940;2023-07-29T03:55:38;4.95;;;1.50;;
36597;SDS011;22607;49.550;11.940;2023-07-29T03:58:05;6.07;;;1.95;;
36597;SDS011;22607;49.550;11.940;2023-07-29T04:00:31;4.63;;;1.58;;
36597;SDS011;22607;49.550;11.940;2023-07-29T04:03:00;5.53;;;1.77;;
36597;SDS011;22607;49.550;11.940;2023-07-29T04:05:27;4.15;;;1.50;;
36597;SDS011;22607;49.550;11.940;2023-07-29T04:07:53;4.45;;;1.65;;
36597;SDS011;22607;49.550;11.940;2023-07-29T04:10:20;6.18;;;1.90;;
36597;SDS011;22607;49.550;11.940;2023-07-29T04:12:47;5.43;;;1.90;;
36597;SDS011;22607;49.550;11.940;2023-07-29T04:15:13;5.57;;;1.73;;
36597;SDS011;22607;49.550;11.940;2023-07-29T04:17:40;4.43;;;1.70;;
36597;SDS011;22607;49.550;11.940;2023-07-29T04:20:06;4.78;;;1.70;;
36597;SDS011;22607;49.550;11.940;2023-07-29T04:22:34;4.72;;;1.73;;
36597;SDS011;22607;49.550;11.940;2023-07-29T04:25:00;5.25;;;1.60;;
36597;SDS011;22607;49.550;11.940;2023-07-29T04:27:27;4.97;;;1.70;;
36597;SDS011;22607;49.550;11.940;2023-07-29T04:29:53;5.15;;;1.77;;
36597;SDS011;22607;49.550;11.940;2023-07-29T04:32:20;4.85;;;1.75;;
36597;SDS011;22607;49.550;11.940;2023-07-29T04:34:46;6.60;;;2.53;;
36597;SDS011;22607;49.550;11.940;2023-07-29T04:37:13;6.60;;;2.50;;
36597;SDS011;22607;49.550;11.940;2023-07-29T04:39:40;7.00;;;2.72;;
36597;SDS011;22607;49.550;11.940;2023-07-29T04:42:06;6.38;;;2.17;;
36597;SDS011;22607;49.550;11.940;2023-07-29T04:44:33;6.85;;;2.42;;
36597;SDS011;22607;49.550;11.940;2023-07-29T04:46:59;6.22;;;2.22;;
36597;SDS011;22607;49.550;11.940;2023-07-29T04:49:26;5.45;;;2.00;;
36597;SDS011;22607;49.550;11.940;2023-07-29T04:51:53;6.85;;;2.58;;
36597;SDS011;22607;49.550;11.940;2023-07-29T04:54:19;6.28;;;2.35;;
36597;SDS011;22607;49.550;11.940;2023-07-29T04:56:47;7.43;;;3.05;;
36597;SDS011;22607;49.550;11.940;2023-07-29T04:59:13;5.97;;;2.37;;
36597;SDS011;22607;49.550;11.940;2023-07-29T05:01:40;6.88;;;2.55;;
36597;SDS011;22607;49.550;11.940;2023-07-29T05:04:08;7.25;;;2.47;;
36597;SDS011;22607;49.550;11.940;2023-07-29T05:06:35;6.25;;;2.40;;
36597;SDS011;22607;49.550;11.940;2023-07-29T05:09:18;6.47;;;2.47;;
36597;SDS011;22607;49.550;11.940;2023-07-29T05:11:46;7.55;;;2.40;;
36597;SDS011;22607;49.550;11.940;2023-07-29T05:14:13;4.82;;;1.75;;
36597;SDS011;22607;49.550;11.940;2023-07-29T05:16:40;4.90;;;1.73;;
36597;SDS011;22607;49.550;11.940;2023-07-29T05:19:07;5.63;;;1.90;;
36597;SDS011;22607;49.550;11.940;2023-07-29T05:21:34;5.72;;;1.90;;
36597;SDS011;22607;49.550;11.940;2023-07-29T05:24:00;5.40;;;1.83;;
36597;SDS011;22607;49.550;11.940;2023-07-29T05:26:27;5.35;;;1.90;;
36597;SDS011;22607;49.550;11.940;2023-07-29T05:28:53;5.45;;;1.85;;
36597;SDS011;22607;49.550;11.940;2023-07-29T05:31:20;6.15;;;1.60;;
36597;SDS011;22607;49.550;11.940;2023-07-29T05:33:47;4.68;;;1.52;;
36597;SDS011;22607;49.550;11.940;2023-07-29T05:36:14;5.03;;;1.70;;
36597;SDS011;22607;49.550;11.940;2023-07-29T05:38:41;5.22;;;1.88;;
36597;SDS011;22607;49.550;11.940;2023-07-29T05:41:08;5.90;;;1.80;;
36597;SDS011;22607;49.550;11.940;2023-07-29T05:43:34;4.93;;;1.55;;
36597;SDS011;22607;49.550;11.940;2023-07-29T05:46:01;5.22;;;1.48;;
36597;SDS011;22607;49.550;11.940;2023-07-29T05:48:27;6.18;;;2.28;;
36597;SDS011;22607;49.550;11.940;2023-07-29T05:50:55;5.43;;;1.77;;
36597;SDS011;22607;49.550;11.940;2023-07-29T05:53:21;5.00;;;1.48;;
36597;SDS011;22607;49.550;11.940;2023-07-29T05:55:48;5.35;;;1.88;;
36597;SDS011;22607;49.550;11.940;2023-07-29T05:58:15;4.22;;;1.48;;
36597;SDS011;22607;49.550;11.940;2023-07-29T06:00:41;4.05;;;1.40;;
36597;SDS011;22607;49.550;11.940;2023-07-29T06:03:08;4.10;;;1.35;;
36597;SDS011;22607;49.550;11.940;2023-07-29T06:05:35;4.13;;;1.17;;
36597;SDS011;22607;49.550;11.940;2023-07-29T06:08:01;3.38;;;1.20;;
36597;SDS011;22607;49.550;11.940;2023-07-29T06:10:28;5.72;;;1.60;;
36597;SDS011;22607;49.550;11.940;2023-07-29T06:12:55;6.30;;;1.83;;
36597;SDS011;22607;49.550;11.940;2023-07-29T06:15:21;5.43;;;1.60;;
36597;SDS011;22607;49.550;11.940;2023-07-29T06:17:49;5.10;;;1.73;;
36597;SDS011;22607;49.550;11.940;2023-07-29T06:20:16;5.90;;;2.15;;
36597;SDS011;22607;49.550;11.940;2023-07-29T06:22:42;5.55;;;1.88;;
36597;SDS011;22607;49.550;11.940;2023-07-29T06:25:11;4.72;;;1.67;;
36597;SDS011;22607;49.550;11.940;2023-07-29T06:27:38;4.43;;;1.40;;
36597;SDS011;22607;49.550;11.940;2023-07-29T06:30:05;5.50;;;1.90;;
36597;SDS011;22607;49.550;11.940;2023-07-29T06:32:33;6.28;;;2.30;;
36597;SDS011;22607;49.550;11.940;2023-07-29T06:35:00;6.55;;;2.40;;
36597;SDS011;22607;49.550;11.940;2023-07-29T06:37:27;5.78;;;2.00;;
36597;SDS011;22607;49.550;11.940;2023-07-29T06:39:54;6.88;;;2.65;;
36597;SDS011;22607;49.550;11.940;2023-07-29T06:42:21;5.05;;;1.67;;
36597;SDS011;22607;49.550;11.940;2023-07-29T06:44:47;6.13;;;1.80;;
36597;SDS011;22607;49.550;11.940;2023-07-29T06:47:14;4.80;;;1.65;;
36597;SDS011;22607;49.550;11.940;2023-07-29T06:49:40;4.93;;;1.40;;
36597;SDS011;22607;49.550;11.940;2023-07-29T06:52:07;5.25;;;1.80;;
36597;SDS011;22607;49.550;11.940;2023-07-29T06:54:34;7.03;;;2.20;;
36597;SDS011;22607;49.550;11.940;2023-07-29T06:57:00;6.90;;;2.10;;
36597;SDS011;22607;49.550;11.940;2023-07-29T06:59:27;5.97;;;1.95;;
36597;SDS011;22607;49.550;11.940;2023-07-29T07:01:53;5.88;;;1.90;;
36597;SDS011;22607;49.550;11.940;2023-07-29T07:04:21;6.05;;;1.95;;
36597;SDS011;22607;49.550;11.940;2023-07-29T07:06:48;6.18;;;2.20;;
36597;SDS011;22607;49.550;11.940;2023-07-29T07:09:15;7.82;;;1.90;;
36597;SDS011;22607;49.550;11.940;2023-07-29T07:11:41;5.85;;;2.08;;
36597;SDS011;22607;49.550;11.940;2023-07-29T07:14:08;6.65;;;1.95;;
36597;SDS011;22607;49.550;11.940;2023-07-29T07:16:34;5.75;;;1.80;;
36597;SDS011;22607;49.550;11.940;2023-07-29T07:19:03;5.28;;;1.73;;
36597;SDS011;22607;49.550;11.940;2023-07-29T07:21:30;5.32;;;1.67;;
36597;SDS011;22607;49.550;11.940;2023-07-29T07:23:56;4.97;;;1.77;;
36597;SDS011;22607;49.550;11.940;2023-07-29T07:26:23;4.05;;;1.50;;
36597;SDS011;22607;49.550;11.940;2023-07-29T07:28:49;5.22;;;1.60;;
36597;SDS011;22607;49.550;11.940;2023-07-29T07:31:17;5.82;;;1.70;;
36597;SDS011;22607;49.550;11.940;2023-07-29T07:33:46;5.28;;;1.65;;
36597;SDS011;22607;49.550;11.940;2023-07-29T07:36:12;5.10;;;1.63;;
36597;SDS011;22607;49.550;11.940;2023-07-29T07:38:39;4.93;;;1.70;;
36597;SDS011;22607;49.550;11.940;2023-07-29T07:41:06;6.30;;;1.77;;
36597;SDS011;22607;49.550;11.940;2023-07-29T07:43:33;6.70;;;2.13;;
36597;SDS011;22607;49.550;11.940;2023-07-29T07:46:00;5.57;;;1.77;;
36597;SDS011;22607;49.550;11.940;2023-07-29T07:48:27;6.32;;;1.80;;
36597;SDS011;22607;49.550;11.940;2023-07-29T07:50:54;5.55;;;1.95;;
36597;SDS011;22607;49.550;11.940;2023-07-29T07:53:21;6.80;;;1.70;;
36597;SDS011;22607;49.550;11.940;2023-07-29T07:55:47;6.53;;;1.80;;
36597;SDS011;22607;49.550;11.940;2023-07-29T07:58:14;5.30;;;1.98;;
36597;SDS011;22607;49.550;11.940;2023-07-29T08:00:40;6.57;;;2.13;;
36597;SDS011;22607;49.550;11.940;2023-07-29T08:03:07;7.32;;;2.03;;
36597;SDS011;22607;49.550;11.940;2023-07-29T08:05:34;6.22;;;2.28;;
36597;SDS011;22607;49.550;11.940;2023-07-29T08:08:00;7.03;;;2.20;;
36597;SDS011;22607;49.550;11.940;2023-07-29T08:10:27;6.40;;;1.95;;
36597;SDS011;22607;49.550;11.940;2023-07-29T08:12:53;4.93;;;1.67;;
36597;SDS011;22607;49.550;11.940;2023-07-29T08:15:20;5.70;;;1.85;;
36597;SDS011;22607;49.550;11.940;2023-07-29T08:17:46;5.45;;;1.60;;
36597;SDS011;22607;49.550;11.940;2023-07-29T08:20:13;4.68;;;1.50;;
36597;SDS011;22607;49.550;11.940;2023-07-29T08:22:39;5.50;;;1.70;;
36597;SDS011;22607;49.550;11.940;2023-07-29T08:25:06;5.25;;;1.55;;
36597;SDS011;22607;49.550;11.940;2023-07-29T08:27:33;5.55;;;1.60;;
36597;SDS011;22607;49.550;11.940;2023-07-29T08:30:00;5.10;;;1.40;;
36597;SDS011;22607;49.550;11.940;2023-07-29T08:32:27;5.82;;;1.67;;
36597;SDS011;22607;49.550;11.940;2023-07-29T08:34:55;5.80;;;1.85;;
36597;SDS011;22607;49.550;11.940;2023-07-29T08:37:21;3.88;;;1.35;;
36597;SDS011;22607;49.550;11.940;2023-07-29T08:39:48;5.82;;;1.98;;
36597;SDS011;22607;49.550;11.940;2023-07-29T08:42:15;4.45;;;1.63;;
36597;SDS011;22607;49.550;11.940;2023-07-29T08:44:45;5.03;;;1.45;;
36597;SDS011;22607;49.550;11.940;2023-07-29T08:47:15;5.47;;;1.60;;
36597;SDS011;22607;49.550;11.940;2023-07-29T08:49:48;4.97;;;1.48;;
36597;SDS011;22607;49.550;11.940;2023-07-29T08:52:52;4.68;;;1.55;;
36597;SDS011;22607;49.550;11.940;2023-07-29T08:55:20;5.78;;;1.65;;
36597;SDS011;22607;49.550;11.940;2023-07-29T08:57:49;5.90;;;1.75;;
36597;SDS011;22607;49.550;11.940;2023-07-29T09:00:17;5.85;;;1.83;;
36597;SDS011;22607;49.550;11.940;2023-07-29T09:02:46;5.38;;;1.70;;
36597;SDS011;22607;49.550;11.940;2023-07-29T09:05:13;4.65;;;1.40;;
36597;SDS011;22607;49.550;11.940;2023-07-29T09:07:40;6.07;;;1.95;;
36597;SDS011;22607;49.550;11.940;2023-07-29T09:10:10;4.72;;;1.60;;
36597;SDS011;22607;49.550;11.940;2023-07-29T09:12:39;4.43;;;1.48;;
36597;SDS011;22607;49.550;11.940;2023-07-29T09:15:06;5.68;;;1.73;;
36597;SDS011;22607;49.550;11.940;2023-07-29T09:17:33;5.85;;;1.70;;
36597;SDS011;22607;49.550;11.940;2023-07-29T09:20:00;6.05;;;2.08;;
36597;SDS011;22607;49.550;11.940;2023-07-29T09:22:27;5.28;;;1.50;;
36597;SDS011;22607;49.550;11.940;2023-07-29T09:24:53;4.97;;;1.77;;
36597;SDS011;22607;49.550;11.940;2023-07-29T09:27:26;5.88;;;2.13;;
36597;SDS011;22607;49.550;11.940;2023-07-29T09:29:55;6.00;;;2.03;;
36597;SDS011;22607;49.550;11.940;2023-07-29T09:32:22;5.22;;;1.60;;
36597;SDS011;22607;49.550;11.940;2023-07-29T09:34:50;6.32;;;2.20;;
36597;SDS011;22607;49.550;11.940;2023-07-29T09:37:20;5.70;;;1.85;;
36597;SDS011;22607;49.550;11.940;2023-07-29T09:39:48;5.72;;;2.00;;
36597;SDS011;22607;49.550;11.940;2023-07-29T09:42:19;7.20;;;2.45;;
36597;SDS011;22607;49.550;11.940;2023-07-29T09:44:48;5.40;;;1.85;;
36597;SDS011;22607;49.550;11.940;2023-07-29T09:47:22;6.15;;;2.13;;
36597;SDS011;22607;49.550;11.940;2023-07-29T09:49:50;7.32;;;2.30;;
36597;SDS011;22607;49.550;11.940;2023-07-29T09:52:18;4.68;;;1.48;;
36597;SDS011;22607;49.550;11.940;2023-07-29T09:54:46;6.03;;;1.80;;
36597;SDS011;22607;49.550;11.940;2023-07-29T09:57:13;4.88;;;1.45;;
36597;SDS011;22607;49.550;11.940;2023-07-29T09:59:41;4.80;;;1.35;;
36597;SDS011;22607;49.550;11.940;2023-07-29T10:02:10;5.85;;;1.38;;
36597;SDS011;22607;49.550;11.940;2023-07-29T10:04:42;3.92;;;1.15;;
36597;SDS011;22607;49.550;11.940;2023-07-29T10:07:11;4.15;;;1.27;;
36597;SDS011;22607;49.550;11.940;2023-07-29T10:09:39;3.05;;;1.10;;
36597;SDS011;22607;49.550;11.940;2023-07-29T10:12:06;3.50;;;1.10;;
36597;SDS011;22607;49.550;11.940;2023-07-29T10:14:34;2.90;;;1.02;;
36597;SDS011;22607;49.550;11.940;2023-07-29T10:17:01;3.45;;;1.08;;
36597;SDS011;22607;49.550;11.940;2023-07-29T10:19:29;5.60;;;1.42;;
36597;SDS011;22607;49.550;11.940;2023-07-29T10:21:59;3.20;;;1.15;;
36597;SDS011;22607;49.550;11.940;2023-07-29T10:24:32;2.75;;;0.93;;
36597;SDS011;22607;49.550;11.940;2023-07-29T10:27:01;3.92;;;1.00;;
36597;SDS011;22607;49.550;11.940;2023-07-29T10:29:30;4.25;;;1.33;;
36597;SDS011;22607;49.550;11.940;2023-07-29T10:32:01;5.28;;;1.23;;
36597;SDS011;22607;49.550;11.940;2023-07-29T10:34:29;4.20;;;1.20;;
36597;SDS011;22607;49.550;11.940;2023-07-29T10:36:57;4.78;;;1.10;;
36597;SDS011;22607;49.550;11.940;2023-07-29T10:39:25;6.18;;;1.33;;
36597;SDS011;22607;49.550;11.940;2023-07-29T10:42:01;4.50;;;1.20;;
36597;SDS011;22607;49.550;11.940;2023-07-29T10:47:13;4.32;;;1.10;;
36597;SDS011;22607;49.550;11.940;2023-07-29T10:49:45;4.82;;;1.50;;
36597;SDS011;22607;49.550;11.940;2023-07-29T10:52:14;3.90;;;1.20;;
36597;SDS011;22607;49.550;11.940;2023-07-29T10:54:45;4.60;;;1.40;;
36597;SDS011;22607;49.550;11.940;2023-07-29T10:57:13;5.57;;;1.60;;
36597;SDS011;22607;49.550;11.940;2023-07-29T10:59:53;5.13;;;1.67;;
36597;SDS011;22607;49.550;11.940;2023-07-29T11:02:27;5.63;;;1.60;;
36597;SDS011;22607;49.550;11.940;2023-07-29T11:04:55;5.95;;;1.80;;
36597;SDS011;22607;49.550;11.940;2023-07-29T11:07:23;5.85;;;1.45;;
36597;SDS011;22607;49.550;11.940;2023-07-29T11:09:57;4.57;;;1.40;;
36597;SDS011;22607;49.550;11.940;2023-07-29T11:17:58;6.07;;;1.50;;
36597;SDS011;22607;49.550;11.940;2023-07-29T11:20:32;4.32;;;1.40;;
36597;SDS011;22607;49.550;11.940;2023-07-29T11:23:00;5.18;;;1.25;;
36597;SDS011;22607;49.550;11.940;2023-07-29T11:25:28;4.47;;;1.35;;
36597;SDS011;22607;49.550;11.940;2023-07-29T11:27:57;4.38;;;1.30;;
36597;SDS011;22607;49.550;11.940;2023-07-29T11:30:26;5.55;;;1.70;;
36597;SDS011;22607;49.550;11.940;2023-07-29T11:32:53;3.20;;;1.17;;
36597;SDS011;22607;49.550;11.940;2023-07-29T11:35:21;5.43;;;1.65;;
36597;SDS011;22607;49.550;11.940;2023-07-29T11:37:50;4.53;;;1.63;;
36597;SDS011;22607;49.550;11.940;2023-07-29T11:40:18;4.30;;;1.50;;
36597;SDS011;22607;49.550;11.940;2023-07-29T11:42:47;6.22;;;1.98;;
36597;SDS011;22607;49.550;11.940;2023-07-29T11:45:16;6.47;;;2.00;;
36597;SDS011;22607;49.550;11.940;2023-07-29T11:47:44;6.47;;;2.00;;
36597;SDS011;22607;49.550;11.940;2023-07-29T11:50:11;5.43;;;1.83;;
36597;SDS011;22607;49.550;11.940;2023-07-29T11:52:41;5.70;;;1.83;;
36597;SDS011;22607;49.550;11.940;2023-07-29T11:55:12;4.65;;;1.42;;
36597;SDS011;22607;49.550;11.940;2023-07-29T11:57:41;5.78;;;1.90;;
36597;SDS011;22607;49.550;11.940;2023-07-29T12:00:09;5.90;;;1.70;;
36597;SDS011;22607;49.550;11.940;2023-07-29T12:02:39;4.30;;;1.42;;
36597;SDS011;22607;49.550;11.940;2023-07-29T12:05:10;4.45;;;1.48;;
36597;SDS011;22607;49.550;11.940;2023-07-29T12:07:39;4.90;;;1.70;;
36597;SDS011;22607;49.550;11.940;2023-07-29T12:10:07;5.90;;;1.80;;
36597;SDS011;22607;49.550;11.940;2023-07-29T12:12:48;4.80;;;1.60;;
36597;SDS011;22607;49.550;11.940;2023-07-29T12:15:22;5.82;;;1.80;;
36597;SDS011;22607;49.550;11.940;2023-07-29T12:17:53;5.47;;;1.60;;
36597;SDS011;22607;49.550;11.940;2023-07-29T12:20:23;4.63;;;1.50;;
36597;SDS011;22607;49.550;11.940;2023-07-29T12:22:53;6.55;;;1.80;;
36597;SDS011;22607;49.550;11.940;2023-07-29T12:25:25;4.43;;;1.73;;
36597;SDS011;22607;49.550;11.940;2023-07-29T12:27:52;8.30;;;1.98;;
36597;SDS011;22607;49.550;11.940;2023-07-29T12:30:22;4.22;;;1.35;;
36597;SDS011;22607;49.550;11.940;2023-07-29T12:32:51;5.40;;;1.70;;
36597;SDS011;22607;49.550;11.940;2023-07-29T12:35:18;5.05;;;1.83;;
36597;SDS011;22607;49.550;11.940;2023-07-29T12:37:44;5.10;;;1.90;;
36597;SDS011;22607;49.550;11.940;2023-07-29T12:40:23;5.40;;;1.60;;
36597;SDS011;22607;49.550;11.940;2023-07-29T12:42:51;8.00;;;1.60;;
36597;SDS011;22607;49.550;11.940;2023-07-29T12:45:18;5.25;;;1.70;;
36597;SDS011;22607;49.550;11.940;2023-07-29T12:47:45;4.60;;;1.63;;
36597;SDS011;22607;49.550;11.940;2023-07-29T12:50:11;4.40;;;1.40;;
36597;SDS011;22607;49.550;11.940;2023-07-29T12:52:40;5.53;;;1.85;;
36597;SDS011;22607;49.550;11.940;2023-07-29T12:55:07;5.85;;;1.60;;
36597;SDS011;22607;49.550;11.940;2023-07-29T12:57:41;5.53;;;1.88;;
36597;SDS011;22607;49.550;11.940;2023-07-29T13:00:09;4.32;;;1.55;;
36597;SDS011;22607;49.550;11.940;2023-07-29T13:02:36;5.28;;;1.50;;
36597;SDS011;22607;49.550;11.940;2023-07-29T13:05:02;4.60;;;1.50;;
36597;SDS011;22607;49.550;11.940;2023-07-29T13:07:29;4.35;;;1.52;;
36597;SDS011;22607;49.550;11.940;2023-07-29T13:09:56;4.07;;;1.60;;
36597;SDS011;22607;49.550;11.940;2023-07-29T13:12:23;4.10;;;1.40;;
36597;SDS011;22607;49.550;11.940;2023-07-29T13:14:50;5.63;;;1.65;;
36597;SDS011;22607;49.550;11.940;2023-07-29T13:17:16;4.85;;;1.52;;
36597;SDS011;22607;49.550;11.940;2023-07-29T13:19:44;4.20;;;1.42;;
36597;SDS011;22607;49.550;11.940;2023-07-29T13:22:12;5.18;;;1.45;;
36597;SDS011;22607;49.550;11.940;2023-07-29T13:24:40;4.78;;;1.40;;
36597;SDS011;22607;49.550;11.940;2023-07-29T13:27:07;5.57;;;1.50;;
36597;SDS011;22607;49.550;11.940;2023-07-29T13:29:33;4.47;;;1.50;;
36597;SDS011;22607;49.550;11.940;2023-07-29T13:32:01;4.20;;;1.30;;
36597;SDS011;22607;49.550;11.940;2023-07-29T13:34:28;6.18;;;1.40;;
36597;SDS011;22607;49.550;11.940;2023-07-29T13:36:54;4.13;;;1.20;;
36597;SDS011;22607;49.550;11.940;2023-07-29T13:39:21;3.45;;;1.20;;
36597;SDS011;22607;49.550;11.940;2023-07-29T13:41:47;4.90;;;1.52;;
36597;SDS011;22607;49.550;11.940;2023-07-29T13:44:14;4.85;;;1.52;;
36597;SDS011;22607;49.550;11.940;2023-07-29T13:46:40;4.68;;;1.40;;
36597;SDS011;22607;49.550;11.940;2023-07-29T13:49:07;7.35;;;1.60;;
36597;SDS011;22607;49.550;11.940;2023-07-29T13:51:33;5.20;;;1.50;;
36597;SDS011;22607;49.550;11.940;2023-07-29T13:54:00;4.85;;;1.55;;
36597;SDS011;22607;49.550;11.940;2023-07-29T13:56:29;6.03;;;1.50;;
36597;SDS011;22607;49.550;11.940;2023-07-29T13:58:55;4.97;;;1.70;;
36597;SDS011;22607;49.550;11.940;2023-07-29T14:01:22;3.97;;;1.30;;
36597;SDS011;22607;49.550;11.940;2023-07-29T14:03:49;5.07;;;1.40;;
36597;SDS011;22607;49.550;11.940;2023-07-29T14:06:15;4.15;;;1.20;;
36597;SDS011;22607;49.550;11.940;2023-07-29T14:08:43;5.30;;;1.48;;
36597;SDS011;22607;49.550;11.940;2023-07-29T14:11:10;4.07;;;1.20;;
36597;SDS011;22607;49.550;11.940;2023-07-29T14:13:36;3.95;;;1.20;;
36597;SDS011;22607;49.550;11.940;2023-07-29T14:16:03;4.15;;;1.27;;
36597;SDS011;22607;49.550;11.940;2023-07-29T14:18:30;3.65;;;1.20;;
36597;SDS011;22607;49.550;11.940;2023-07-29T14:20:57;5.35;;;1.58;;
36597;SDS011;22607;49.550;11.940;2023-07-29T14:23:24;4.70;;;1.38;;
36597;SDS011;22607;49.550;11.940;2023-07-29T14:25:51;4.07;;;1.20;;
36597;SDS011;22607;49.550;11.940;2023-07-29T14:28:17;4.78;;;1.30;;
36597;SDS011;22607;49.550;11.940;2023-07-29T14:30:44;4.50;;;1.20;;
36597;SDS011;22607;49.550;11.940;2023-07-29T14:33:10;4.38;;;1.42;;
36597;SDS011;22607;49.550;11.940;2023-07-29T14:35:38;3.40;;;1.20;;
36597;SDS011;22607;49.550;11.940;2023-07-29T14:38:05;3.55;;;1.20;;
36597;SDS011;22607;49.550;11.940;2023-07-29T14:40:31;4.53;;;1.27;;
36597;SDS011;22607;49.550;11.940;2023-07-29T14:42:58;5.22;;;1.40;;
36597;SDS011;22607;49.550;11.940;2023-07-29T14:45:25;4.05;;;1.33;;
36597;SDS011;22607;49.550;11.940;2023-07-29T14:47:51;3.90;;;1.30;;
36597;SDS011;22607;49.550;11.940;2023-07-29T14:50:18;3.55;;;1.10;;